Time;durP1;ratioP1;P1;durP2;ratioP2;P2;SDS_P1;SDS_P2;PMS_P1;PMS_P2;Temp;Humidity;BMP_temperature;BMP_pressure;BME280_temperature;BME280_humidity;BME280_pressure;Samples;Min_cycle;Max_cycle;Signal;HPM_P1;HPM_P2
2022/05/12 00:02:08;;;;;;;;;3.75;2.00;;;;;28.26;36.55;101232.72;4828188;29;46515;-78
2022/05/12 00:04:35;;;;;;;;;3.75;1.25;;;;;28.59;36.80;101228.13;4828001;29;45495;-78
2022/05/12 00:07:01;;;;;;;;;4.25;2.50;;;;;28.55;36.98;101221.47;4823733;29;45495;-78
2022/05/12 00:09:27;;;;;;;;;3.75;1.75;;;;;28.75;36.09;101218.72;4821009;29;45453;-79
2022/05/12 00:11:53;;;;;;;;;2.00;2.00;;;;;28.79;35.85;101230.88;4828257;29;45396;-79
2022/05/12 00:14:19;;;;;;;;;2.00;2.00;;;;;28.99;36.18;101233.56;4827937;29;45211;-79
2022/05/12 00:16:45;;;;;;;;;5.25;3.00;;;;;28.86;36.23;101226.25;4821038;29;45198;-79
2022/05/12 00:19:11;;;;;;;;;4.00;2.00;;;;;28.80;36.22;101229.81;4821117;29;45547;-78
2022/05/12 00:21:36;;;;;;;;;7.00;2.00;;;;;28.63;36.48;101234.00;4829495;29;45567;-78
2022/05/12 00:24:02;;;;;;;;;3.75;3.75;;;;;28.80;36.38;101243.41;4814260;29;45334;-77
2022/05/12 00:26:33;;;;;;;;;3.25;2.00;;;;;29.27;35.68;101244.16;4804131;29;45364;-78
2022/05/12 00:29:01;;;;;;;;;2.75;2.00;;;;;29.27;35.19;101242.28;4817036;29;45470;-78
2022/05/12 00:31:28;;;;;;;;;6.00;2.50;;;;;29.31;34.41;101246.25;4829043;29;45396;-78
2022/05/12 00:33:54;;;;;;;;;6.00;3.00;;;;;29.41;35.34;101251.25;4829305;29;45516;-78
2022/05/12 00:36:20;;;;;;;;;3.00;2.25;;;;;29.34;34.82;101251.25;4807838;29;45409;-78
2022/05/12 00:38:47;;;;;;;;;3.00;3.00;;;;;29.41;35.30;101253.97;4820560;29;45608;-79
2022/05/12 00:41:13;;;;;;;;;4.75;3.75;;;;;29.50;35.14;101255.41;4830534;29;45361;-78
2022/05/12 00:43:43;;;;;;;;;2.00;2.00;;;;;29.21;35.36;101267.63;4814373;29;45266;-79
2022/05/12 00:46:31;;;;;;;;;4.75;3.00;;;;;28.93;35.90;101257.00;4829266;29;45537;-79
2022/05/12 00:49:03;;;;;;;;;6.25;3.25;;;;;28.68;36.44;101262.19;4830800;29;45380;-79
2022/05/12 00:51:37;;;;;;;;;2.25;2.00;;;;;28.52;36.03;101267.22;4813167;29;46319;-79
2022/05/12 00:54:05;;;;;;;;;3.75;2.50;;;;;28.98;35.41;101267.22;4827894;29;45554;-78
2022/05/12 00:56:34;;;;;;;;;4.75;3.00;;;;;28.39;36.08;101270.78;4811268;29;46410;-79
2022/05/12 00:59:03;;;;;;;;;4.50;2.75;;;;;28.51;36.31;101279.97;4830762;29;45249;-79
2022/05/12 01:01:29;;;;;;;;;3.00;3.00;;;;;28.42;36.37;101277.66;4830401;29;45488;-79
2022/05/12 01:03:57;;;;;;;;;6.25;2.75;;;;;28.32;36.67;101274.53;4830691;29;45432;-79
2022/05/12 01:06:23;;;;;;;;;7.00;3.75;;;;;28.49;36.51;101279.38;4827583;29;45407;-79
2022/05/12 01:08:48;;;;;;;;;4.50;3.00;;;;;28.56;35.66;101276.66;4817852;29;45830;-78
2022/05/12 01:11:17;;;;;;;;;4.00;3.00;;;;;28.88;35.33;101283.13;4830628;29;45312;-78
2022/05/12 01:13:50;;;;;;;;;5.75;3.75;;;;;28.69;36.13;101287.50;4829960;29;45399;-78
2022/05/12 01:16:35;;;;;;;;;5.50;3.75;;;;;28.74;35.37;101295.88;4812902;29;45326;-79
2022/05/12 01:19:01;;;;;;;;;6.00;2.75;;;;;28.91;35.01;101283.56;4820399;29;45565;-79
2022/05/12 01:21:27;;;;;;;;;3.00;2.75;;;;;28.81;35.34;101293.19;4815603;29;48120;-79
2022/05/12 01:23:52;;;;;;;;;3.50;3.50;;;;;29.13;34.45;101294.22;4833004;29;45422;-78
2022/05/12 01:26:18;;;;;;;;;4.50;3.25;;;;;28.82;35.22;101297.59;4831781;29;45563;-78
2022/05/12 01:28:43;;;;;;;;;5.75;3.50;;;;;28.80;34.86;101292.34;4807882;29;45329;-78
2022/05/12 01:31:15;;;;;;;;;5.75;3.00;;;;;30.24;33.61;101300.31;4833885;29;45501;-78
2022/05/12 01:33:41;;;;;;;;;4.50;2.75;;;;;28.92;34.32;101298.84;4814274;29;45256;-78
2022/05/12 01:36:06;;;;;;;;;5.75;3.00;;;;;28.31;35.19;101300.88;4813408;29;45384;-78
2022/05/12 01:38:31;;;;;;;;;3.00;1.75;;;;;28.50;35.35;101302.75;4828973;29;45418;-79
2022/05/12 01:40:57;;;;;;;;;3.25;3.25;;;;;28.64;34.55;101309.03;4808414;29;46828;-79
2022/05/12 01:43:22;;;;;;;;;4.00;3.00;;;;;28.60;34.69;101307.78;4826373;29;45478;-79
2022/05/12 01:45:48;;;;;;;;;5.50;4.25;;;;;28.79;33.78;101301.53;4830179;29;45436;-79
2022/05/12 01:48:15;;;;;;;;;6.25;3.25;;;;;28.81;35.07;101318.50;4811447;29;45473;-79
2022/05/12 01:50:43;;;;;;;;;4.00;3.75;;;;;28.43;35.06;101307.34;4828827;29;46325;-79
2022/05/12 01:53:11;;;;;;;;;6.00;4.50;;;;;28.73;34.94;101320.56;4829139;29;45349;-78
2022/05/12 01:55:38;;;;;;;;;3.50;3.25;;;;;28.48;34.62;101313.00;4829927;29;45466;-78
2022/05/12 01:58:04;;;;;;;;;5.25;4.25;;;;;28.48;35.04;101326.59;4826408;29;45750;-78
2022/05/12 02:00:31;;;;;;;;;7.00;5.00;;;;;28.47;34.73;101334.94;4825767;29;46356;-79
2022/05/12 02:03:00;;;;;;;;;5.75;4.25;;;;;28.60;34.53;101330.34;4829822;29;45491;-79
2022/05/12 02:05:26;;;;;;;;;6.25;5.50;;;;;28.61;34.59;101328.47;4830014;29;45258;-79
2022/05/12 02:07:52;;;;;;;;;6.50;4.75;;;;;28.73;34.64;101334.97;4828781;29;45570;-79
2022/05/12 02:10:24;;;;;;;;;4.00;3.00;;;;;28.79;34.47;101342.31;4829786;29;45439;-78
2022/05/12 02:12:49;;;;;;;;;7.00;5.50;;;;;28.33;34.98;101346.81;4829465;29;45363;-79
2022/05/12 02:15:15;;;;;;;;;6.00;4.25;;;;;28.28;35.20;101358.31;4830022;29;46515;-79
2022/05/12 02:17:40;;;;;;;;;5.50;3.75;;;;;28.36;34.94;101351.84;4802410;29;45367;-79
2022/05/12 02:20:07;;;;;;;;;4.25;3.25;;;;;28.14;35.51;101357.38;4832662;29;46409;-79
2022/05/12 02:22:32;;;;;;;;;4.50;3.00;;;;;28.24;34.62;101357.88;4816010;29;45591;-78
2022/05/12 02:24:58;;;;;;;;;3.25;2.25;;;;;28.76;33.14;101352.75;4831131;29;45345;-78
2022/05/12 02:27:23;;;;;;;;;1.00;1.00;;;;;28.29;33.52;101358.13;4815424;29;45492;-78
2022/05/12 02:29:49;;;;;;;;;1.75;0.00;;;;;28.01;32.79;101372.81;4813300;29;47339;-78
2022/05/12 02:32:14;;;;;;;;;3.00;1.50;;;;;27.67;33.02;101355.53;4830371;29;45393;-78
2022/05/12 02:34:40;;;;;;;;;1.00;1.00;;;;;27.01;34.00;101365.88;4829550;29;45329;-79
2022/05/12 02:37:05;;;;;;;;;1.00;1.00;;;;;27.24;33.72;101367.50;4822988;29;45442;-78
2022/05/12 02:39:36;;;;;;;;;1.75;1.00;;;;;27.27;33.48;101376.09;4826058;29;46380;-78
2022/05/12 02:42:07;;;;;;;;;2.00;1.25;;;;;27.14;33.84;101389.53;4812023;29;45458;-78
2022/05/12 02:44:33;;;;;;;;;2.00;2.00;;;;;27.29;33.77;101370.47;4829313;29;45276;-79
2022/05/12 02:46:58;;;;;;;;;3.50;1.25;;;;;27.37;33.41;101383.88;4824402;29;45275;-79
2022/05/12 02:49:24;;;;;;;;;2.75;1.75;;;;;27.32;33.96;101375.50;4826369;29;46022;-79
2022/05/12 02:51:50;;;;;;;;;2.75;2.00;;;;;27.14;34.19;101382.25;4827633;29;45218;-78
2022/05/12 02:54:17;;;;;;;;;1.00;1.00;;;;;27.46;33.43;101398.97;4801993;29;45678;-78
2022/05/12 02:56:43;;;;;;;;;1.00;1.00;;;;;27.51;33.91;101391.06;4826490;29;46332;-78
2022/05/12 02:59:09;;;;;;;;;6.00;1.00;;;;;27.69;33.75;101388.72;4813682;29;45900;-78
2022/05/12 03:01:35;;;;;;;;;3.00;1.00;;;;;27.82;33.49;101383.38;4811821;29;45500;-79
2022/05/12 03:04:01;;;;;;;;;2.00;2.00;;;;;27.78;33.29;101390.22;4812197;29;45487;-79
2022/05/12 03:06:27;;;;;;;;;3.00;1.00;;;;;27.82;33.69;101399.66;4811558;29;45630;-79
2022/05/12 03:08:53;;;;;;;;;2.00;1.50;;;;;27.97;33.49;101412.25;4823790;29;47041;-79
2022/05/12 03:11:19;;;;;;;;;2.25;1.00;;;;;28.22;33.27;101405.31;4829136;29;45336;-79
2022/05/12 03:13:46;;;;;;;;;2.00;2.00;;;;;28.48;32.63;101410.00;4825260;29;45491;-79
2022/05/12 03:16:12;;;;;;;;;2.00;1.00;;;;;28.03;33.48;101404.16;4829778;29;45410;-78
2022/05/12 03:18:39;;;;;;;;;1.75;1.00;;;;;27.90;33.47;101418.50;4831644;29;45372;-78
2022/05/12 03:21:04;;;;;;;;;2.25;1.00;;;;;27.50;34.47;101398.38;4832672;29;44965;-78
2022/05/12 03:23:30;;;;;;;;;1.00;1.00;;;;;27.18;34.57;101409.81;4815191;29;45505;-78
2022/05/12 03:25:55;;;;;;;;;5.25;2.50;;;;;27.33;34.57;101407.00;4816003;29;45421;-78
2022/05/12 03:28:21;;;;;;;;;2.25;1.00;;;;;27.26;34.72;101396.13;4810605;29;48289;-78
2022/05/12 03:30:47;;;;;;;;;2.00;1.00;;;;;27.79;34.06;101412.78;4820380;29;45311;-78
2022/05/12 03:33:13;;;;;;;;;3.00;2.00;;;;;27.68;33.91;101416.06;4829306;29;45526;-78
2022/05/12 03:35:39;;;;;;;;;3.00;2.00;;;;;27.08;34.24;101412.88;4828471;29;45234;-78
2022/05/12 03:38:05;;;;;;;;;2.00;2.00;;;;;27.01;33.88;101413.84;4815870;29;46470;-78
2022/05/12 03:40:31;;;;;;;;;3.00;2.00;;;;;27.22;34.43;101404.84;4820953;29;45651;-78
2022/05/12 03:42:58;;;;;;;;;2.00;2.00;;;;;27.31;34.26;101415.38;4811668;29;45477;-78
2022/05/12 03:45:27;;;;;;;;;6.75;1.00;;;;;26.68;35.48;101413.47;4828704;29;45419;-78
2022/05/12 03:47:55;;;;;;;;;1.25;1.00;;;;;27.00;35.25;101401.31;4820274;29;45435;-79
2022/05/12 03:50:22;;;;;;;;;4.00;1.25;;;;;27.09;34.93;101409.13;4828489;29;45528;-78
2022/05/12 03:52:50;;;;;;;;;1.00;1.00;;;;;27.30;34.83;101400.13;4811080;29;45405;-78
2022/05/12 03:55:18;;;;;;;;;2.25;2.25;;;;;27.63;34.25;101411.22;4811932;29;45365;-78
2022/05/12 03:57:46;;;;;;;;;3.00;2.00;;;;;27.81;33.94;101419.69;4826378;29;45262;-78
2022/05/12 04:00:15;;;;;;;;;4.00;1.00;;;;;27.42;34.01;101412.09;4828014;29;45237;-78
2022/05/12 04:02:40;;;;;;;;;2.50;1.50;;;;;27.88;33.74;101423.28;4828009;29;45461;-78
2022/05/12 04:05:07;;;;;;;;;2.75;1.00;;;;;28.03;33.33;101415.03;4828018;29;45373;-78
2022/05/12 04:07:33;;;;;;;;;1.75;1.00;;;;;27.47;34.12;101408.78;4819582;29;46337;-78
2022/05/12 04:10:02;;;;;;;;;5.50;1.25;;;;;27.20;34.53;101418.59;4823468;29;45766;-78
2022/05/12 04:12:28;;;;;;;;;2.25;1.50;;;;;27.05;35.20;101428.66;4827027;29;45443;-78
2022/05/12 04:14:53;;;;;;;;;1.00;1.00;;;;;27.75;33.97;101425.09;4830137;29;45503;-77
2022/05/12 04:17:19;;;;;;;;;2.00;2.00;;;;;27.12;34.16;101432.31;4814669;29;47165;-78
2022/05/12 04:19:46;;;;;;;;;3.75;2.00;;;;;27.32;34.14;101427.03;4833817;29;45373;-78
2022/05/12 04:22:13;;;;;;;;;3.00;1.00;;;;;27.28;34.62;101421.19;4832685;29;45373;-78
2022/05/12 04:24:38;;;;;;;;;3.00;3.00;;;;;27.41;34.60;101442.97;4834507;29;45313;-78
2022/05/12 04:27:05;;;;;;;;;2.00;2.00;;;;;27.63;34.05;101441.06;4810847;29;47571;-78
2022/05/12 04:29:30;;;;;;;;;3.25;1.00;;;;;27.58;34.59;101448.16;4823899;29;45228;-78
2022/05/12 04:31:55;;;;;;;;;1.00;1.00;;;;;27.76;33.90;101443.06;4829614;29;45400;-78
2022/05/12 04:37:05;;;;;;;;;5.50;2.00;;;;;27.99;33.25;101438.16;4827015;29;45664;-78
2022/05/12 04:39:31;;;;;;;;;2.50;2.25;;;;;27.89;33.73;101438.53;4816105;29;45230;-78
2022/05/12 04:41:57;;;;;;;;;2.00;2.00;;;;;27.86;33.68;101454.41;4809743;29;45271;-78
2022/05/12 04:44:23;;;;;;;;;2.50;2.25;;;;;27.47;33.84;101442.19;4817093;29;45618;-78
2022/05/12 04:46:48;;;;;;;;;4.00;2.00;;;;;27.54;34.67;101450.41;4825021;29;45558;-78
2022/05/12 04:49:14;;;;;;;;;3.50;2.00;;;;;27.53;34.15;101457.69;4820165;29;45434;-77
2022/05/12 04:51:40;;;;;;;;;5.00;2.00;;;;;27.49;34.48;101450.97;4809946;29;45479;-78
2022/05/12 04:54:09;;;;;;;;;3.00;3.00;;;;;27.43;34.65;101456.34;4826011;29;45882;-78
2022/05/12 04:56:39;;;;;;;;;2.75;2.25;;;;;27.28;35.19;101453.72;4824209;29;45471;-78
2022/05/12 04:59:06;;;;;;;;;2.00;2.00;;;;;26.78;35.61;101465.47;4828626;29;45442;-78
2022/05/12 05:01:32;;;;;;;;;4.00;2.25;;;;;26.63;35.71;101462.00;4807449;29;45899;-78
2022/05/12 05:04:00;;;;;;;;;2.75;2.75;;;;;26.43;36.41;101461.75;4822717;29;45387;-77
2022/05/12 05:06:26;;;;;;;;;5.00;2.75;;;;;26.52;36.28;101466.03;4829503;29;45632;-77
2022/05/12 05:08:52;;;;;;;;;3.75;3.00;;;;;26.39;36.62;101458.59;4812236;29;45753;-77
2022/05/12 05:11:18;;;;;;;;;3.50;2.75;;;;;26.56;36.15;101474.63;4817827;29;45514;-78
2022/05/12 05:13:44;;;;;;;;;2.00;2.00;;;;;26.61;36.45;101464.88;4822018;29;45399;-78
2022/05/12 05:16:10;;;;;;;;;5.25;2.25;;;;;26.75;35.81;101466.72;4815527;29;47149;-78
2022/05/12 05:18:36;;;;;;;;;5.00;3.00;;;;;26.88;35.90;101470.59;4831401;29;45405;-77
2022/05/12 05:21:02;;;;;;;;;5.00;4.00;;;;;26.88;35.39;101476.84;4837117;29;45440;-77
2022/05/12 05:23:28;;;;;;;;;7.00;3.00;;;;;26.55;36.16;101478.38;4829471;29;45603;-77
2022/05/12 05:25:53;;;;;;;;;6.75;3.75;;;;;26.78;36.23;101481.75;4812369;29;48179;-78
2022/05/12 05:36:46;;;;;;;;;;;;;;;;;;;;;
2022/05/12 05:39:52;;;;;;;;;5.75;3.00;;;;;26.21;36.06;101508.72;4796146;29;46200;-77
2022/05/12 05:42:23;;;;;;;;;3.25;3.00;;;;;26.58;35.78;101508.63;4840754;29;45409;-78
2022/05/12 05:45:10;;;;;;;;;;;;;;;;;;;;;
2022/05/12 05:48:00;;;;;;;;;;;;;;;;;;;;;
2022/05/12 05:54:26;;;;;;;;;;;;;;;;;;;;;
2022/05/12 06:01:00;;;;;;;;;;;;;;;;;;;;;
2022/05/12 06:06:48;;;;;;;;;3.00;3.00;;;;;25.77;36.75;101549.28;4822984;29;45499;-78
2022/05/12 06:09:14;;;;;;;;;8.50;3.50;;;;;26.04;36.29;101557.63;4815739;29;45361;-78
2022/05/12 06:11:54;;;;;;;;;;;;;;;;;;;;;
2022/05/12 06:14:52;;;;;;;;;5.00;3.00;;;;;26.84;35.20;101559.59;4844134;29;75428;-77
2022/05/12 06:17:19;;;;;;;;;4.50;3.25;;;;;26.81;35.57;101566.22;4844104;29;45451;-77
2022/05/12 06:20:00;;;;;;;;;4.50;2.00;;;;;27.07;34.65;101563.03;4821244;29;45499;-78
2022/05/12 06:22:28;;;;;;;;;2.00;2.00;;;;;27.16;34.47;101575.44;4832194;29;45255;-77
2022/05/12 06:24:54;;;;;;;;;5.00;3.75;;;;;26.87;34.36;101574.63;4843284;29;45387;-77
2022/05/12 06:27:20;;;;;;;;;3.00;2.75;;;;;26.89;34.66;101562.56;4835920;29;45335;-77
2022/05/12 06:29:48;;;;;;;;;5.75;2.50;;;;;27.02;34.01;101572.78;4823301;29;45238;-77
2022/05/12 06:32:17;;;;;;;;;5.25;3.75;;;;;27.22;34.55;101573.84;4822552;29;45382;-77
2022/05/12 06:34:43;;;;;;;;;12.50;4.00;;;;;27.19;34.29;101571.50;4826731;29;46060;-77
2022/05/12 06:37:10;;;;;;;;;3.25;3.25;;;;;27.25;33.73;101578.00;4812152;29;45511;-77
2022/05/12 06:39:35;;;;;;;;;6.75;3.00;;;;;26.99;34.41;101573.13;4819277;29;45709;-77
2022/05/12 06:42:01;;;;;;;;;3.00;3.00;;;;;27.15;34.20;101584.59;4822977;29;46151;-77
2022/05/12 06:44:27;;;;;;;;;6.75;4.00;;;;;27.40;33.64;101586.97;4835173;29;45612;-78
2022/05/12 06:46:53;;;;;;;;;3.75;3.00;;;;;26.97;34.33;101583.31;4823110;29;45479;-78
2022/05/12 06:49:19;;;;;;;;;4.00;3.00;;;;;27.20;34.26;101586.75;4820640;29;45586;-78
2022/05/12 06:51:45;;;;;;;;;4.25;3.50;;;;;27.47;33.93;101591.41;4836367;29;45429;-78
2022/05/12 06:54:11;;;;;;;;;3.75;3.00;;;;;26.96;34.35;101590.63;4839580;29;45429;-78
2022/05/12 06:56:36;;;;;;;;;3.00;3.00;;;;;27.04;33.80;101587.78;4844864;29;45345;-78
2022/05/12 06:59:02;;;;;;;;;2.50;2.50;;;;;27.16;33.92;101588.16;4846328;29;45272;-78
2022/05/12 07:01:27;;;;;;;;;5.75;3.75;;;;;27.55;33.21;101588.59;4820006;29;45476;-78
2022/05/12 07:03:56;;;;;;;;;3.25;3.25;;;;;27.71;32.99;101576.63;4822647;29;47945;-77
2022/05/12 07:06:21;;;;;;;;;6.50;3.00;;;;;27.91;32.45;101587.66;4846363;29;45273;-78
2022/05/12 07:08:47;;;;;;;;;5.75;3.50;;;;;27.90;32.70;101580.53;4841451;29;45650;-77
2022/05/12 07:11:12;;;;;;;;;7.75;3.00;;;;;28.04;32.13;101579.63;4830274;29;44779;-78
2022/05/12 07:13:38;;;;;;;;;4.50;4.00;;;;;28.22;32.00;101585.44;4829642;29;45410;-77
2022/05/12 07:16:05;;;;;;;;;3.25;2.25;;;;;28.39;32.35;101585.09;4812159;29;45431;-78
2022/05/12 07:18:34;;;;;;;;;3.00;2.00;;;;;28.74;32.11;101592.19;4828073;29;45465;-78
2022/05/12 07:26:39;;;;;;;;;5.50;3.50;;;;;30.07;29.89;101594.19;4828736;29;45257;-78
2022/05/12 07:29:09;;;;;;;;;3.25;2.00;;;;;32.05;28.10;101579.63;4828802;29;45304;-78
2022/05/12 07:31:35;;;;;;;;;5.75;3.75;;;;;34.83;25.72;101570.59;4828693;29;45475;-78
2022/05/12 07:34:00;;;;;;;;;2.00;2.00;;;;;36.97;25.68;101567.38;4828276;29;45920;-78
2022/05/12 07:36:33;;;;;;;;;3.00;2.50;;;;;38.92;22.60;101569.38;4842181;29;45532;-78
2022/05/12 07:39:00;;;;;;;;;1.00;1.00;;;;;40.00;22.17;101566.44;4845369;29;45282;-79
2022/05/12 07:41:26;;;;;;;;;5.75;2.75;;;;;42.08;18.84;101574.34;4845540;29;45511;-79
2022/05/12 07:43:54;;;;;;;;;1.75;1.75;;;;;42.43;17.64;101572.31;4842325;29;45358;-79
2022/05/12 07:46:23;;;;;;;;;3.75;2.00;;;;;43.18;18.69;101581.56;4817597;29;45237;-79
2022/05/12 07:48:49;;;;;;;;;2.75;2.50;;;;;44.19;15.59;101586.50;4819396;29;45435;-79
2022/05/12 07:51:17;;;;;;;;;2.00;2.00;;;;;45.05;17.53;101577.16;4831064;29;45526;-79
2022/05/12 07:53:43;;;;;;;;;1.25;1.25;;;;;45.03;16.65;101575.81;4831649;29;45348;-79
2022/05/12 07:56:09;;;;;;;;;2.50;1.25;;;;;46.20;15.56;101580.03;4837735;29;45453;-79
2022/05/12 07:58:34;;;;;;;;;1.50;0.50;;;;;46.85;14.80;101592.41;4847151;29;45431;-79
2022/05/12 08:01:00;;;;;;;;;1.25;0.00;;;;;48.14;14.69;101575.47;4844188;29;45625;-79
2022/05/12 08:03:26;;;;;;;;;1.75;1.75;;;;;48.57;12.98;101575.22;4846443;29;45388;-79
2022/05/12 08:05:53;;;;;;;;;2.75;2.00;;;;;48.45;13.20;101588.31;4816794;29;45872;-80
2022/05/12 08:08:19;;;;;;;;;4.25;3.00;;;;;48.47;13.05;101581.22;4815705;29;45331;-80
2022/05/12 08:10:45;;;;;;;;;1.75;1.00;;;;;48.89;12.38;101586.91;4815837;29;45428;-79
2022/05/12 08:13:17;;;;;;;;;3.50;2.00;;;;;48.82;13.75;101590.25;4831265;29;45527;-79
2022/05/12 08:15:44;;;;;;;;;6.00;1.00;;;;;47.97;12.58;101593.16;4831517;29;45604;-80
2022/05/12 08:18:10;;;;;;;;;2.25;1.75;;;;;47.67;12.71;101596.19;4814813;29;45447;-80
2022/05/12 08:20:36;;;;;;;;;3.00;2.00;;;;;48.27;13.52;101602.41;4825333;29;45562;-80
2022/05/12 08:23:02;;;;;;;;;4.00;1.00;;;;;49.36;12.28;101607.13;4830932;29;45424;-80
2022/05/12 08:25:29;;;;;;;;;1.00;1.00;;;;;49.98;11.19;101604.19;4830542;29;45278;-80
2022/05/12 08:27:55;;;;;;;;;1.00;0.50;;;;;50.65;11.07;101613.22;4830585;29;45326;-80
2022/05/12 08:30:20;;;;;;;;;2.00;0.25;;;;;50.00;11.43;101606.63;4830466;29;45475;-78
2022/05/12 08:32:47;;;;;;;;;0.00;0.00;;;;;49.30;10.97;101608.50;4841928;29;45377;-78
2022/05/12 08:35:13;;;;;;;;;1.25;0.00;;;;;48.29;12.02;101602.91;4846920;29;45415;-78
2022/05/12 08:37:39;;;;;;;;;2.50;0.25;;;;;49.47;12.74;101597.91;4818394;29;45454;-78
2022/05/12 08:40:11;;;;;;;;;6.50;0.75;;;;;50.11;10.54;101591.75;4830881;29;45539;-78
2022/05/12 08:42:47;;;;;;;;;1.25;1.00;;;;;50.40;10.84;101604.78;4839161;29;45401;-78
2022/05/12 08:45:17;;;;;;;;;1.00;1.00;;;;;50.54;10.45;101599.63;4822684;29;45450;-78
2022/05/12 08:47:47;;;;;;;;;2.00;0.50;;;;;51.12;10.40;101597.38;4828105;29;45372;-78
2022/05/12 08:50:23;;;;;;;;;4.25;1.25;;;;;51.32;10.00;101595.56;4823893;29;45382;-78
2022/05/12 08:52:53;;;;;;;;;3.00;1.00;;;;;52.01;9.86;101599.84;4819530;29;45422;-78
2022/05/12 08:55:33;;;;;;;;;0.00;0.00;;;;;52.40;10.65;101588.72;4815835;29;45564;-78
2022/05/12 08:58:16;;;;;;;;;1.50;1.00;;;;;53.32;9.23;101585.94;4841292;29;45493;-78
2022/05/12 09:01:02;;;;;;;;;1.00;0.00;;;;;52.42;10.55;101598.47;4835155;29;45464;-78
2022/05/12 09:04:02;;;;;;;;;1.50;1.00;;;;;49.61;11.11;101591.22;4831000;29;46196;-78
2022/05/12 09:06:35;;;;;;;;;2.00;0.50;;;;;50.27;12.00;101586.28;4838551;29;45320;-78
2022/05/12 09:09:26;;;;;;;;;2.75;0.25;;;;;50.68;9.95;101595.63;4840057;29;45341;-78
2022/05/12 09:12:30;;;;;;;;;3.00;1.00;;;;;51.00;10.12;101585.34;4813978;29;45449;-78
2022/05/12 09:15:06;;;;;;;;;2.50;2.25;;;;;48.77;10.95;101579.22;4799556;29;47184;-79
2022/05/12 09:17:55;;;;;;;;;1.75;0.75;;;;;47.74;11.70;101591.72;4813816;29;45200;-79
2022/05/12 09:20:21;;;;;;;;;2.75;2.25;;;;;47.16;11.92;101597.88;4829085;29;45433;-79
2022/05/12 09:22:47;;;;;;;;;4.00;1.00;;;;;47.20;11.96;101596.88;4827125;29;45337;-78
2022/05/12 09:25:28;;;;;;;;;4.50;1.75;;;;;46.32;12.44;101604.59;4813603;29;47170;-78
2022/05/12 09:27:53;;;;;;;;;0.25;0.25;;;;;45.38;13.29;101597.28;4830459;29;45455;-78
2022/05/12 09:30:32;;;;;;;;;3.25;0.00;;;;;41.40;15.72;101610.44;4830524;29;45345;-78
2022/05/12 09:32:59;;;;;;;;;2.00;1.00;;;;;39.85;16.53;101600.50;4813686;29;46939;-78
2022/05/12 09:35:27;;;;;;;;;1.75;1.50;;;;;39.36;16.93;101597.38;4829808;29;45246;-78
2022/05/12 09:37:53;;;;;;;;;4.25;1.25;;;;;38.21;17.59;101591.13;4830009;29;45545;-78
2022/05/12 09:40:37;;;;;;;;;2.00;1.00;;;;;36.33;18.90;101597.38;4830096;29;45445;-78
2022/05/12 09:43:31;;;;;;;;;0.50;0.50;;;;;36.35;19.15;101592.47;4830271;29;45365;-78
2022/05/12 09:46:31;;;;;;;;;1.75;1.50;;;;;37.87;18.62;101584.25;4823321;29;45286;-78
2022/05/12 09:49:18;;;;;;;;;1.00;1.00;;;;;39.92;17.46;101583.59;4800214;29;45475;-77
2022/05/12 09:51:43;;;;;;;;;1.50;1.50;;;;;39.98;16.75;101576.94;4813739;29;45427;-77
2022/05/12 09:54:29;;;;;;;;;3.00;0.00;;;;;39.94;16.86;101581.38;4831402;29;45335;-77
2022/05/12 09:57:04;;;;;;;;;2.75;1.25;;;;;40.06;17.05;101581.94;4819233;29;45402;-78
2022/05/12 09:59:32;;;;;;;;;1.75;1.00;;;;;40.48;15.74;101589.84;4828309;29;45282;-77
2022/05/12 10:02:07;;;;;;;;;2.25;0.25;;;;;42.14;15.51;101575.97;4833639;29;45254;-77
2022/05/12 10:10:21;;;;;;;;;0.75;0.50;;;;;44.05;14.64;101563.41;4841839;29;45559;-78
2022/05/12 10:12:56;;;;;;;;;1.50;1.50;;;;;44.69;13.75;101571.56;4843931;29;45240;-78
2022/05/12 10:15:21;;;;;;;;;2.75;0.00;;;;;46.04;13.44;101578.84;4847343;29;45528;-78
2022/05/12 10:17:57;;;;;;;;;0.50;0.50;;;;;45.51;12.99;101567.69;4827949;29;46908;-78
2022/05/12 10:20:26;;;;;;;;;1.00;1.00;;;;;45.89;12.70;101567.28;4846939;29;45417;-78
2022/05/12 10:23:20;;;;;;;;;4.75;2.25;;;;;46.54;12.67;101556.16;4821460;29;45478;-79
2022/05/12 10:25:58;;;;;;;;;1.25;1.25;;;;;44.59;13.27;101560.63;4809569;29;45778;-79
2022/05/12 10:29:02;;;;;;;;;2.25;2.25;;;;;42.76;14.54;101553.84;4818625;29;46634;-78
2022/05/12 10:42:50;;;;;;;;;;;;;;;;;;;;;
2022/05/12 10:46:11;;;;;;;;;;;;;;;;;;;;;
2022/05/12 10:53:03;;;;;;;;;;;;;;;;;;;;;
2022/05/12 10:56:18;;;;;;;;;0.00;0.00;;;;;38.09;18.54;101557.38;4831692;29;73895;-78
2022/05/12 10:59:10;;;;;;;;;;;;;;;;;;;;;
2022/05/12 11:01:46;;;;;;;;;3.50;2.50;;;;;38.28;18.59;101541.22;4843854;29;68108;-78
2022/05/12 11:04:36;;;;;;;;;5.75;3.75;;;;;37.82;18.57;101552.78;4830589;29;45328;-78
2022/05/12 11:07:21;;;;;;;;;5.50;2.75;;;;;37.35;19.50;101560.91;4831582;29;48023;-78
2022/05/12 11:09:54;;;;;;;;;4.00;3.00;;;;;37.09;19.81;101554.31;4823665;29;49056;-78
2022/05/12 11:12:40;;;;;;;;;4.00;2.75;;;;;36.97;19.16;101555.53;4830360;29;45346;-77
2022/05/12 11:15:21;;;;;;;;;4.50;3.00;;;;;36.96;20.07;101545.66;4825833;29;45474;-78
2022/05/12 11:18:03;;;;;;;;;7.75;2.75;;;;;36.93;19.82;101549.75;4845609;29;45518;-78
2022/05/12 11:31:22;;;;;;;;;5.00;3.25;;;;;36.72;19.54;101534.91;4807637;29;46114;-79
2022/05/12 11:36:50;;;;;;;;;;;;;;;;;;;;;
2022/05/12 11:39:58;;;;;;;;;6.50;6.50;;;;;37.19;19.69;101547.25;4827109;29;70831;-79
2022/05/12 11:46:41;;;;;;;;;;;;;;;;;;;;;
2022/05/12 11:49:32;;;;;;;;;6.25;4.00;;;;;37.12;19.97;101550.22;4782379;29;68367;-79
2022/05/12 11:52:19;;;;;;;;;3.50;2.00;;;;;38.04;18.93;101555.41;4811908;29;45634;-79
2022/05/12 11:55:34;;;;;;;;;;;;;;;;;;;;;
2022/05/12 11:58:45;;;;;;;;;;;;;;;;;;;;;
2022/05/12 12:01:48;;;;;;;;;3.25;3.25;;;;;38.60;18.79;101549.41;4830660;29;68809;-79
2022/05/12 12:04:31;;;;;;;;;;;;;;;;;;;;;
2022/05/12 12:07:17;;;;;;;;;5.25;3.25;;;;;38.25;19.14;101550.84;4830127;29;74421;-78
2022/05/12 12:09:52;;;;;;;;;;;;;;;;;;;;;
2022/05/12 12:12:46;;;;;;;;;5.00;2.00;;;;;36.94;20.34;101545.91;4827773;29;67439;-79
2022/05/12 12:15:22;;;;;;;;;5.00;3.25;;;;;37.10;20.30;101552.38;4799872;29;45503;-79
2022/05/12 12:21:00;;;;;;;;;2.75;2.75;;;;;37.09;20.21;101542.44;4818285;29;45226;-79
2022/05/12 12:24:03;;;;;;;;;;;;;;;;;;;;;
2022/05/12 12:27:06;;;;;;;;;;;;;;;;;;;;;
2022/05/12 12:30:00;;;;;;;;;;;;;;;;;;;;;
2022/05/12 12:33:04;;;;;;;;;;;;;;;;;;;;;
2022/05/12 12:36:04;;;;;;;;;;;;;;;;;;;;;
2022/05/12 12:38:55;;;;;;;;;;;;;;;;;;;;;
2022/05/12 12:41:32;;;;;;;;;4.25;2.25;;;;;38.23;18.87;101528.25;4830244;29;75360;-78
2022/05/12 12:44:02;;;;;;;;;6.75;4.00;;;;;38.26;19.02;101518.56;4814306;29;45281;-79
2022/05/12 12:47:07;;;;;;;;;4.00;2.00;;;;;38.46;18.78;101513.97;4831350;29;45525;-79
2022/05/12 12:49:50;;;;;;;;;3.00;2.00;;;;;38.17;19.06;101512.75;4794732;29;45691;-79
2022/05/12 12:52:58;;;;;;;;;;;;;;;;;;;;;
2022/05/12 12:59:02;;;;;;;;;;;;;;;;;;;;;
2022/05/12 13:05:50;;;;;;;;;2.00;2.00;;;;;36.82;20.08;101520.44;4809484;29;45523;-79
2022/05/12 13:08:42;;;;;;;;;;;;;;;;;;;;;
2022/05/12 13:11:30;;;;;;;;;;;;;;;;;;;;;
2022/05/12 13:14:27;;;;;;;;;;;;;;;;;;;;;
2022/05/12 13:17:07;;;;;;;;;0.75;0.75;;;;;36.14;21.24;101505.25;4828886;29;45599;-78
2022/05/12 13:19:52;;;;;;;;;4.00;3.00;;;;;36.27;21.09;101496.63;4813963;29;45478;-79
2022/05/12 13:23:41;;;;;;;;;;;;;;;;;;;;;
2022/05/12 13:26:38;;;;;;;;;2.50;1.50;;;;;36.46;20.87;101491.63;4781685;29;45563;-79
2022/05/12 13:32:16;;;;;;;;;;;;;;;;;;;;;
2022/05/12 13:35:21;;;;;;;;;;;;;;;;;;;;;
2022/05/12 13:38:44;;;;;;;;;;;;;;;;;;;;;
2022/05/12 13:41:38;;;;;;;;;;;;;;;;;;;;;
2022/05/12 13:47:31;;;;;;;;;2.75;2.50;;;;;36.66;20.35;101478.13;4822934;29;45317;-78
2022/05/12 13:56:56;;;;;;;;;;;;;;;;;;;;;
2022/05/12 14:03:18;;;;;;;;;4.25;2.50;;;;;36.73;20.09;101465.00;4820932;29;46121;-78
2022/05/12 14:06:12;;;;;;;;;5.00;2.00;;;;;37.33;19.81;101454.84;4786782;29;45980;-79
2022/05/12 14:08:47;;;;;;;;;1.25;1.25;;;;;36.66;20.61;101464.34;4809737;29;45357;-78
2022/05/12 14:12:05;;;;;;;;;;;;;;;;;;;;;
2022/05/12 14:21:39;;;;;;;;;;;;;;;;;;;;;
2022/05/12 14:24:45;;;;;;;;;;;;;;;;;;;;;
2022/05/12 14:27:51;;;;;;;;;;;;;;;;;;;;;